Weather at Bay Meadows Airport [CLOSED]

Public forecast

Using degrees Fahrenheit for public forecast. Weather courtesy of forecast.io.

Closest aviation weather report (METAR) to Bay Meadows Airport

Closest report is San Carlos Airport, 3.0 nm (5.6 km) SE.

2024/05/29 08:35 (retrieved 11 minutes ago)

KSQL 290835Z AUTO 30006KT 10SM CLR 15/07 A3009 RMK AO2

Closest aviation forecast (TAF) to Bay Meadows Airport

Closest forecast is San Francisco International Airport, 5.7 nm (10.5 km) NW.

2024/05/29 06:39 (retrieved 2 hours ago)

TAF KSFO 290536Z 2906/3012 27015G20KT P6SM FEW030 FM291400 27008KT P6SM FEW030 FM292000 28020G25KT P6SM SKC FM300400 28014KT P6SM SKC FM301100 29007KT P6SM SKC